Hinckley, Minnesota
Current Conditions -  °F | °C
As of 5:26 AM on Sunday 23 Nov 2014 (Local Time) from K04W Reporting Station
Moderate Fog Moderate Fog  
Wind Chill: 36°   Ceiling: 200
Heat Index: 39°   Visibility: 0.25mi
Dew Point: 39°   Wind: 5mph
Humidity: 100%   Direction: 200°SSW
Pressure: 29.42"   Gusts: NA
Location:  46.01°N, 92.94°W
Report Text: K04W 231126Z AUTO 20004KT 1/4SM FG OVC002 04/04 A2942 RMK AO2
Loading
Personal Weather Stations






























Interactive Weather Map New forecast layout! Learn more

10-Day Weather Forecast

Advertisements
Track Severe Weather on mobile